ADDS METAR Data INFO
IDs: Format: Raw Decoded Include TAF

Data at: 1458 UTC 11 Dec 2017

KMGR 111435Z AUTO 27003KT 10SM 06/02 A3028 RMK AO2
KMGR 111415Z AUTO 26003KT 10SM 05/02 A3028 RMK AO2
KMGR 111355Z AUTO 00000KT 10SM 03/01 A3029 RMK AO2
KMGR 111335Z AUTO 00000KT 10SM 02/01 A3029 RMK AO2
KMGR 111315Z AUTO 00000KT 10SM 01/00 A3029 RMK AO2
KMGR 111255Z AUTO 00000KT 10SM 00/00 A3029 RMK AO2
KMGR 111235Z AUTO 00000KT 10SM 00/00 A3028 RMK AO2
KMGR 111215Z AUTO 00000KT 10SM 00/00 A3028 RMK AO2
KMGR 111155Z AUTO 00000KT 10SM 00/00 A3028 RMK AO2
KMGR 111135Z AUTO 00000KT 10SM 00/00 A3028 RMK AO2
KMGR 111115Z AUTO 00000KT 10SM 00/00 A3028 RMK AO2
KMGR 111055Z AUTO 00000KT 10SM 00/00 A3027 RMK AO2
KMGR 111035Z AUTO 00000KT 10SM 00/00 A3028 RMK AO2
KMGR 111015Z AUTO 00000KT 10SM 00/00 A3028 RMK AO2
KMGR 110955Z AUTO 00000KT 10SM 00/00 A3028 RMK AO2
KMGR 110935Z AUTO 00000KT 10SM 00/00 A3028 RMK AO2
KMGR 110915Z AUTO 00000KT 10SM 00/00 A3029 RMK AO2
KMGR 110855Z AUTO 00000KT 10SM 00/00 A3029 RMK AO2
KMGR 110835Z AUTO 00000KT 10SM 00/00 A3029 RMK AO2
KMGR 110815Z AUTO 00000KT 10SM 00/00 A3030 RMK AO2
KMGR 110755Z AUTO 00000KT 10SM 01/00 A3029 RMK AO2
KMGR 110735Z AUTO 00000KT 10SM 01/00 A3030 RMK AO2
KMGR 110715Z AUTO 00000KT 10SM 01/00 A3030 RMK AO2
KMGR 110655Z AUTO 00000KT 10SM 01/00 A3030 RMK AO2
KMGR 110635Z AUTO 00000KT 10SM 02/00 A3029 RMK AO2
KMGR 110615Z AUTO 00000KT 10SM 02/00 A3030 RMK AO2
KMGR 110555Z AUTO 00000KT 10SM 01/00 A3031 RMK AO2
KMGR 110535Z AUTO 00000KT 10SM 01/00 A3031 RMK AO2
KMGR 110515Z AUTO 00000KT 10SM 01/00 A3031 RMK AO2
KMGR 110455Z AUTO 00000KT 10SM 02/00 A3030 RMK AO2
KMGR 110435Z AUTO 00000KT 10SM 02/00 A3031 RMK AO2
KMGR 110415Z AUTO 00000KT 10SM 02/00 A3031 RMK AO2
KMGR 110355Z AUTO 00000KT 10SM 03/00 A3031 RMK AO2
KMGR 110335Z AUTO 00000KT 10SM CLR 03/00 A3031 RMK AO2
KMGR 110315Z AUTO 00000KT 10SM CLR 03/00 A3031 RMK AO2
KMGR 110255Z AUTO 00000KT 10SM 03/01 A3031 RMK AO2
KMGR 110235Z AUTO 00000KT 10SM 03/01 A3030 RMK AO2
KMGR 110215Z AUTO 00000KT 10SM CLR 03/01 A3031 RMK AO2
KMGR 110155Z AUTO 00000KT 10SM CLR 03/02 A3031 RMK AO2
KMGR 110135Z AUTO 00000KT 10SM CLR 03/02 A3031 RMK AO2
KMGR 110115Z AUTO 00000KT 10SM CLR 03/01 A3031 RMK AO2
KMGR 110055Z AUTO 00000KT 10SM CLR 04/02 A3030 RMK AO2
KMGR 110035Z AUTO 00000KT 10SM CLR 04/01 A3030 RMK AO2
KMGR 110015Z AUTO 00000KT 10SM CLR 04/01 A3029 RMK AO2
KMGR 102355Z AUTO 00000KT 10SM CLR 05/01 A3029 RMK AO2
KMGR 102335Z AUTO 00000KT 10SM CLR 05/01 A3029 RMK AO2
KMGR 102315Z AUTO 00000KT 10SM CLR 06/01 A3029 RMK AO2
KMGR 102255Z AUTO 00000KT 10SM CLR 06/01 A3028 RMK AO2
KMGR 102235Z AUTO 00000KT 10SM CLR 08/M01 A3028 RMK AO2
KMGR 102215Z AUTO 28003KT 10SM CLR 09/M01 A3028 RMK AO2
KMGR 102155Z AUTO 27004KT 10SM CLR 10/M02 A3028 RMK AO2
KMGR 102135Z AUTO 30004KT 10SM CLR 10/M03 A3028 RMK AO2
KMGR 102115Z AUTO 27006KT 10SM CLR 10/M03 A3028 RMK AO2
KMGR 102055Z AUTO 27006KT 10SM CLR 10/M03 A3028 RMK AO2
KMGR 102035Z AUTO 28005KT 10SM CLR 10/M03 A3028 RMK AO2
KMGR 102015Z AUTO 29004KT 10SM CLR 10/M02 A3028 RMK AO2
KMGR 101955Z AUTO 27005KT 10SM CLR 10/M02 A3028 RMK AO2
KMGR 101935Z AUTO 25005KT 10SM CLR 10/M02 A3028 RMK AO2
KMGR 101915Z AUTO 31004KT 10SM 10/M03 A3028 RMK AO2
KMGR 101855Z AUTO 31005KT 10SM 10/M02 A3028 RMK AO2
KMGR 101835Z AUTO 30007KT 10SM 09/M02 A3029 RMK AO2
KMGR 101815Z AUTO 28005KT 10SM 08/M02 A3030 RMK AO2
KMGR 101755Z AUTO 32005KT 10SM 08/M02 A3031 RMK AO2
KMGR 101735Z AUTO 27006KT 10SM 08/M01 A3031 RMK AO2
KMGR 101715Z AUTO 30003KT 10SM CLR 08/M01 A3032 RMK AO2
KMGR 101655Z AUTO 28003KT 10SM CLR 07/M02 A3033 RMK AO2
KMGR 101635Z AUTO 31005KT 10SM CLR 07/M01 A3034 RMK AO2
KMGR 101615Z AUTO 29004KT 10SM CLR 06/M02 A3034 RMK AO2
KMGR 101555Z AUTO 32003KT 10SM 06/M02 A3034 RMK AO2
KMGR 101535Z AUTO 31006KT 10SM 05/M01 A3034 RMK AO2
KMGR 101515Z AUTO 01004KT 10SM 05/M01 A3035 RMK AO2
KMGR 101455Z AUTO 36006KT 10SM CLR 04/M02 A3035 RMK AO2
KMGR 101435Z AUTO 34006KT 10SM CLR 03/M02 A3034 RMK AO2
KMGR 101415Z AUTO 36006KT 10SM CLR 03/M01 A3034 RMK AO2
KMGR 101355Z AUTO 34003KT 10SM CLR 02/00 A3034 RMK AO2
KMGR 101335Z AUTO 00000KT 10SM CLR 01/00 A3034 RMK AO2
KMGR 101315Z AUTO 00000KT 10SM CLR 00/00 A3034 RMK AO2
KMGR 101255Z AUTO 00000KT 10SM CLR 00/M01 A3033 RMK AO2
KMGR 101235Z AUTO 00000KT 10SM CLR 00/M01 A3032 RMK AO2
KMGR 101215Z AUTO 00000KT 10SM CLR 00/M01 A3031 RMK AO2
KMGR 101155Z AUTO 00000KT 10SM CLR 00/M01 A3031 RMK AO2
KMGR 101135Z AUTO 33003KT 10SM CLR 00/M01 A3030 RMK AO2
KMGR 101115Z AUTO 00000KT 10SM CLR 00/M01 A3031 RMK AO2
KMGR 101055Z AUTO 00000KT 10SM CLR 00/M01 A3030 RMK AO2
KMGR 101035Z AUTO 00000KT 10SM CLR 00/M01 A3029 RMK AO2
KMGR 101015Z AUTO 00000KT 10SM CLR 00/M01 A3028 RMK AO2
KMGR 100955Z AUTO 00000KT 10SM CLR 01/M01 A3028 RMK AO2
KMGR 100935Z AUTO 00000KT 10SM CLR 01/M01 A3028 RMK AO2
KMGR 100915Z AUTO 30003KT 10SM CLR 01/M01 A3028 RMK AO2
KMGR 100855Z AUTO 00000KT 10SM CLR 01/M01 A3027 RMK AO2
KMGR 100835Z AUTO 00000KT 10SM CLR 01/M01 A3027 RMK AO2
KMGR 100815Z AUTO 29003KT 10SM CLR 01/M01 A3026 RMK AO2
KMGR 100755Z AUTO 29003KT 10SM CLR 01/M01 A3025 RMK AO2
KMGR 100735Z AUTO 00000KT 10SM CLR 01/M01 A3024 RMK AO2
KMGR 100715Z AUTO 00000KT 10SM CLR 01/M01 A3024 RMK AO2
KMGR 100655Z AUTO 00000KT 10SM CLR 02/M01 A3023 RMK AO2
KMGR 100635Z AUTO 00000KT 10SM CLR 02/M01 A3023 RMK AO2
KMGR 100615Z AUTO 00000KT 10SM CLR 02/M01 A3023 RMK AO2
KMGR 100555Z AUTO 00000KT 10SM CLR 02/M01 A3023 RMK AO2
KMGR 100535Z AUTO 00000KT 10SM CLR 02/M01 A3022 RMK AO2
KMGR 100515Z AUTO 29003KT 10SM CLR 01/M01 A3022 RMK AO2
KMGR 100455Z AUTO 00000KT 10SM CLR 01/M01 A3022 RMK AO2
KMGR 100435Z AUTO 00000KT 10SM CLR 01/M01 A3022 RMK AO2
KMGR 100415Z AUTO 00000KT 10SM CLR 02/M01 A3021 RMK AO2
KMGR 100355Z AUTO 26003KT 10SM CLR 02/M01 A3021 RMK AO2
KMGR 100335Z AUTO 00000KT 10SM CLR 02/M01 A3020 RMK AO2
KMGR 100315Z AUTO 00000KT 10SM CLR 02/M01 A3019 RMK AO2